Time;durP1;ratioP1;P1;durP2;ratioP2;P2;SDS_P1;SDS_P2;PMS_P1;PMS_P2;Temp;Humidity;BMP_temperature;BMP_pressure;BME280_temperature;BME280_humidity;BME280_pressure;Samples;Min_cycle;Max_cycle;Signal;HPM_P1;HPM_P2
2022/08/09 00:01:05;;;;;;;7.75;4.15;;;15.10;99.90;;;;;;5031224;28;20483;-76
2022/08/09 00:03:31;;;;;;;12.00;7.13;;;15.10;99.90;;;;;;5030881;28;20045;-76
2022/08/09 00:05:56;;;;;;;8.65;4.18;;;15.10;99.90;;;;;;4997908;28;20056;-76
2022/08/09 00:08:22;;;;;;;8.38;4.85;;;15.00;99.90;;;;;;5015154;28;20190;-76
2022/08/09 00:10:48;;;;;;;8.93;4.78;;;15.10;99.90;;;;;;5031656;28;20045;-76
2022/08/09 00:13:14;;;;;;;10.18;5.82;;;15.10;99.90;;;;;;5026544;28;20088;-76
2022/08/09 00:15:40;;;;;;;7.50;4.63;;;15.10;99.90;;;;;;4995559;28;20512;-76
2022/08/09 00:18:06;;;;;;;11.40;7.05;;;15.00;99.90;;;;;;5027135;28;20052;-76
2022/08/09 00:20:32;;;;;;;11.05;7.88;;;14.90;99.90;;;;;;4991129;28;20491;-76
2022/08/09 00:22:57;;;;;;;10.20;6.60;;;14.80;99.90;;;;;;4997251;28;20049;-76
2022/08/09 00:25:23;;;;;;;12.02;6.70;;;14.80;99.90;;;;;;5000900;28;20042;-75
2022/08/09 00:27:49;;;;;;;9.95;6.65;;;14.80;99.90;;;;;;5010449;28;20049;-76
2022/08/09 00:30:14;;;;;;;9.35;6.35;;;14.80;99.90;;;;;;4995038;28;20077;-76
2022/08/09 00:32:40;;;;;;;8.63;4.45;;;14.80;99.90;;;;;;4975519;28;20083;-76
2022/08/09 00:35:07;;;;;;;10.45;5.88;;;14.80;99.90;;;;;;4995119;28;20116;-76
2022/08/09 00:37:32;;;;;;;8.52;5.05;;;14.80;99.90;;;;;;5007693;28;20039;-76
2022/08/09 00:39:58;;;;;;;7.03;4.88;;;14.80;99.90;;;;;;4992614;28;20088;-76
2022/08/09 00:42:27;;;;;;;9.02;5.60;;;14.80;99.90;;;;;;5008281;28;20495;-76
2022/08/09 00:44:53;;;;;;;6.85;3.60;;;14.80;99.90;;;;;;4975964;28;20490;-76
2022/08/09 00:47:19;;;;;;;5.70;3.33;;;14.90;99.90;;;;;;4992002;28;20103;-76
2022/08/09 00:49:45;;;;;;;8.43;4.43;;;14.90;99.90;;;;;;5004344;28;20100;-76
2022/08/09 00:52:11;;;;;;;8.70;5.47;;;14.90;99.90;;;;;;4991869;28;20038;-76
2022/08/09 00:54:36;;;;;;;9.10;5.60;;;14.90;99.90;;;;;;5004108;28;20107;-76
2022/08/09 00:57:03;;;;;;;6.75;2.97;;;14.90;99.90;;;;;;4991470;28;20485;-76
2022/08/09 00:59:29;;;;;;;5.35;2.92;;;14.90;99.90;;;;;;4985431;28;20092;-76
2022/08/09 01:01:59;;;;;;;5.15;2.58;;;15.00;99.90;;;;;;4994752;28;20444;-76
2022/08/09 01:04:40;;;;;;;5.50;2.60;;;15.00;99.90;;;;;;5004101;28;20042;-76
2022/08/09 01:07:20;;;;;;;6.07;2.70;;;15.00;99.90;;;;;;5008495;28;20046;-76
2022/08/09 01:10:24;;;;;;;4.90;2.70;;;15.00;99.90;;;;;;5000255;28;20109;-76
2022/08/09 01:13:10;;;;;;;6.45;3.15;;;15.00;99.90;;;;;;4975282;28;20140;-76
2022/08/09 01:15:42;;;;;;;6.72;3.20;;;15.00;99.90;;;;;;4998271;28;20096;-76
2022/08/09 01:18:11;;;;;;;5.85;3.35;;;15.00;99.90;;;;;;5006782;28;20050;-76
2022/08/09 01:20:46;;;;;;;5.43;3.03;;;15.00;99.90;;;;;;5000465;28;20041;-76
2022/08/09 01:23:30;;;;;;;6.55;3.75;;;15.00;99.90;;;;;;5014129;28;20056;-76
2022/08/09 01:25:56;;;;;;;6.78;3.67;;;15.00;99.90;;;;;;4989926;28;20507;-76
2022/08/09 01:28:23;;;;;;;6.57;4.40;;;15.00;99.90;;;;;;4998466;28;20072;-76
2022/08/09 01:30:52;;;;;;;6.78;3.90;;;14.90;99.90;;;;;;5014238;28;20081;-76
2022/08/09 01:33:25;;;;;;;5.35;2.67;;;15.00;99.90;;;;;;4998135;28;20464;-76
2022/08/09 01:36:05;;;;;;;11.18;6.60;;;14.90;99.90;;;;;;5013679;28;20041;-76
2022/08/09 01:38:35;;;;;;;9.23;6.65;;;14.90;99.90;;;;;;4998357;28;20041;-76
2022/08/09 01:41:10;;;;;;;7.72;4.95;;;14.80;99.90;;;;;;4998190;28;20116;-76
2022/08/09 01:43:39;;;;;;;7.78;4.88;;;14.80;99.90;;;;;;4998046;28;20104;-76
2022/08/09 01:46:06;;;;;;;7.50;4.60;;;14.80;99.90;;;;;;5014085;28;20503;-76
2022/08/09 01:48:34;;;;;;;10.43;6.88;;;14.80;99.90;;;;;;5013510;28;20401;-76
2022/08/09 01:51:01;;;;;;;7.93;5.22;;;14.80;99.90;;;;;;4997394;28;20075;-76
2022/08/09 01:53:29;;;;;;;9.63;7.20;;;14.80;99.90;;;;;;4994214;28;20042;-76
2022/08/09 01:55:55;;;;;;;9.98;6.82;;;14.70;99.90;;;;;;4989443;28;20042;-76
2022/08/09 01:58:22;;;;;;;10.25;8.00;;;14.60;99.90;;;;;;4981251;28;20038;-75
2022/08/09 02:00:49;;;;;;;12.10;8.68;;;14.40;99.90;;;;;;5013991;28;20038;-76
2022/08/09 02:03:17;;;;;;;11.23;6.82;;;14.30;99.90;;;;;;5012235;28;20050;-76
2022/08/09 02:05:47;;;;;;;10.45;7.43;;;14.30;99.90;;;;;;5013847;28;20521;-76
2022/08/09 02:08:16;;;;;;;9.10;6.15;;;14.20;99.90;;;;;;4996992;28;20129;-76
2022/08/09 02:10:47;;;;;;;16.27;10.85;;;14.20;99.90;;;;;;5013767;28;20139;-76
2022/08/09 02:13:15;;;;;;;13.60;8.38;;;14.20;99.90;;;;;;5032278;28;20129;-77
2022/08/09 02:15:46;;;;;;;11.68;8.60;;;14.10;99.90;;;;;;5033541;28;20042;-76
2022/08/09 02:18:14;;;;;;;11.98;8.15;;;14.10;99.90;;;;;;5029240;28;20040;-76
2022/08/09 02:20:45;;;;;;;10.88;8.10;;;14.10;99.90;;;;;;5033006;28;20501;-76
2022/08/09 02:23:19;;;;;;;15.27;10.82;;;14.10;99.90;;;;;;5028909;28;20037;-76
2022/08/09 02:25:50;;;;;;;20.25;13.00;;;14.10;99.90;;;;;;5020053;28;20128;-76
2022/08/09 02:28:53;;;;;;;14.32;9.45;;;14.10;99.90;;;;;;5016700;28;20043;-76
2022/08/09 02:31:24;;;;;;;11.73;9.00;;;14.00;99.90;;;;;;4951815;28;20045;-76
2022/08/09 02:33:54;;;;;;;12.63;9.38;;;14.00;99.90;;;;;;5028123;28;20124;-76
2022/08/09 02:36:36;;;;;;;15.18;9.80;;;14.00;99.90;;;;;;5032638;28;20503;-76
2022/08/09 02:39:05;;;;;;;12.02;9.25;;;14.00;99.90;;;;;;5033518;28;20540;-76
2022/08/09 02:41:42;;;;;;;15.88;11.05;;;14.00;99.90;;;;;;5019917;28;20043;-76
2022/08/09 02:44:14;;;;;;;14.88;9.48;;;14.00;99.90;;;;;;5019472;28;20043;-76
2022/08/09 02:46:41;;;;;;;;;;;14.00;99.90;;;;;;5003517;28;20037;-76
2022/08/09 02:49:11;;;;;;;12.18;9.07;;;13.90;99.90;;;;;;5008357;28;20018;-76
2022/08/09 02:51:40;;;;;;;12.02;8.90;;;13.80;99.90;;;;;;5036378;28;20098;-75
2022/08/09 02:54:09;;;;;;;12.10;8.95;;;13.70;99.90;;;;;;5028228;28;20033;-76
2022/08/09 02:56:36;;;;;;;12.30;9.07;;;13.70;99.90;;;;;;5032877;28;20488;-75
2022/08/09 02:59:04;;;;;;;12.40;9.52;;;13.60;99.90;;;;;;5025886;28;20073;-76
2022/08/09 03:01:31;;;;;;;10.43;8.52;;;13.60;99.90;;;;;;5036025;28;20737;-75
2022/08/09 03:04:00;;;;;;;10.65;7.47;;;13.60;99.90;;;;;;5035144;28;20119;-75
2022/08/09 03:06:27;;;;;;;11.95;8.63;;;13.60;99.90;;;;;;5035215;28;20049;-75
2022/08/09 03:08:54;;;;;;;11.35;9.10;;;13.50;99.90;;;;;;5013835;28;20065;-75
2022/08/09 03:11:21;;;;;;;11.50;8.35;;;13.50;99.90;;;;;;5017202;28;20050;-75
2022/08/09 03:13:48;;;;;;;12.82;9.00;;;13.50;99.90;;;;;;5018063;28;20051;-75
2022/08/09 03:16:17;;;;;;;11.65;8.95;;;13.40;99.90;;;;;;5019280;28;20040;-75
2022/08/09 03:18:48;;;;;;;13.13;9.90;;;13.40;99.90;;;;;;5018600;28;20043;-76
2022/08/09 03:21:15;;;;;;;10.70;8.60;;;13.40;99.90;;;;;;5027501;28;20089;-75
2022/08/09 03:23:48;;;;;;;12.30;9.13;;;13.40;99.90;;;;;;4995489;28;20041;-75
2022/08/09 03:26:15;;;;;;;12.27;9.55;;;13.40;99.90;;;;;;5005925;28;20056;-75
2022/08/09 03:28:42;;;;;;;11.80;8.77;;;13.40;99.90;;;;;;5035969;28;20515;-76
2022/08/09 03:31:09;;;;;;;14.07;9.13;;;13.40;99.90;;;;;;4999527;28;20503;-76
2022/08/09 03:33:36;;;;;;;12.57;9.18;;;13.40;99.90;;;;;;5025235;28;20492;-76
2022/08/09 03:36:06;;;;;;;12.57;8.63;;;13.50;99.90;;;;;;5031834;28;20171;-76
2022/08/09 03:38:36;;;;;;;12.10;9.23;;;13.50;99.90;;;;;;5020933;28;20511;-76
2022/08/09 03:41:01;;;;;;;12.80;9.02;;;13.50;99.90;;;;;;5030510;28;20475;-76
2022/08/09 03:43:28;;;;;;;22.92;14.02;;;13.50;99.90;;;;;;5035083;28;20051;-75
2022/08/09 03:45:55;;;;;;;12.35;8.98;;;13.50;99.90;;;;;;5017467;28;20049;-76
2022/08/09 03:48:25;;;;;;;15.70;10.50;;;13.50;99.90;;;;;;4982784;28;20103;-75
2022/08/09 03:50:53;;;;;;;13.93;10.85;;;13.60;99.90;;;;;;5029056;28;20045;-76
2022/08/09 03:53:20;;;;;;;13.20;9.40;;;13.50;99.90;;;;;;5029139;28;20043;-75
2022/08/09 03:55:47;;;;;;;12.65;8.18;;;13.50;99.90;;;;;;5015747;28;20431;-75
2022/08/09 03:58:13;;;;;;;13.27;9.95;;;13.50;99.90;;;;;;5018145;28;20462;-75
2022/08/09 04:00:41;;;;;;;11.23;9.13;;;13.60;99.90;;;;;;5031726;28;20497;-74
2022/08/09 04:03:08;;;;;;;14.27;10.10;;;13.60;99.90;;;;;;5031327;28;20395;-75
2022/08/09 04:05:34;;;;;;;11.13;8.20;;;13.50;99.90;;;;;;4990007;28;20041;-75
2022/08/09 04:08:00;;;;;;;16.83;10.18;;;13.50;99.90;;;;;;5033363;28;20045;-75
2022/08/09 04:10:26;;;;;;;19.55;11.13;;;13.50;99.90;;;;;;5034600;28;20090;-75
2022/08/09 04:12:53;;;;;;;18.25;10.82;;;13.50;99.90;;;;;;5014819;28;20057;-76
2022/08/09 04:15:21;;;;;;;21.70;10.55;;;13.40;99.90;;;;;;5034747;28;20029;-75
2022/08/09 04:17:47;;;;;;;22.38;11.55;;;13.30;99.90;;;;;;5031287;28;20508;-75
2022/08/09 04:20:14;;;;;;;14.52;10.65;;;13.30;99.90;;;;;;5016102;28;20033;-75
2022/08/09 04:22:40;;;;;;;16.90;11.00;;;13.30;99.90;;;;;;5031315;28;20049;-76
2022/08/09 04:25:07;;;;;;;14.45;10.73;;;13.30;99.90;;;;;;5015313;28;20048;-75
2022/08/09 04:27:34;;;;;;;13.48;10.23;;;13.20;99.90;;;;;;5018219;28;20572;-75
2022/08/09 04:30:00;;;;;;;13.40;10.38;;;13.20;99.90;;;;;;5039828;28;20429;-76
2022/08/09 04:32:27;;;;;;;14.43;10.38;;;13.20;99.90;;;;;;5029802;28;20459;-76
2022/08/09 04:34:53;;;;;;;13.85;10.45;;;13.30;99.90;;;;;;5014454;28;20075;-75
2022/08/09 04:37:19;;;;;;;12.75;9.93;;;13.30;99.90;;;;;;5014432;28;20033;-75
2022/08/09 04:39:45;;;;;;;14.48;9.88;;;13.30;99.90;;;;;;5024317;28;20111;-75
2022/08/09 04:42:11;;;;;;;14.35;10.60;;;13.20;99.90;;;;;;5027096;28;20076;-75
2022/08/09 04:44:37;;;;;;;12.55;9.75;;;13.30;99.90;;;;;;5016273;28;20491;-75
2022/08/09 04:47:03;;;;;;;13.85;10.60;;;13.30;99.90;;;;;;5011156;28;20080;-75
2022/08/09 04:49:32;;;;;;;11.60;8.73;;;13.30;99.90;;;;;;5015629;28;20077;-76
2022/08/09 04:51:58;;;;;;;14.55;10.43;;;13.30;99.90;;;;;;5051816;28;20148;-76
2022/08/09 04:54:24;;;;;;;13.98;10.10;;;13.30;99.90;;;;;;5037563;28;20048;-76
2022/08/09 04:56:50;;;;;;;12.82;9.18;;;13.40;99.90;;;;;;5008695;28;20037;-76
2022/08/09 04:59:15;;;;;;;13.02;9.98;;;13.40;99.90;;;;;;5001972;28;20030;-76
2022/08/09 05:01:43;;;;;;;14.13;9.82;;;13.40;99.90;;;;;;5028457;28;21258;-76
2022/08/09 05:04:09;;;;;;;15.27;10.02;;;13.40;99.90;;;;;;5007375;28;20073;-76
2022/08/09 05:06:35;;;;;;;14.27;10.32;;;13.50;99.90;;;;;;5004907;28;20503;-76
2022/08/09 05:09:03;;;;;;;15.40;10.60;;;13.50;99.90;;;;;;5003001;28;20116;-76
2022/08/09 05:11:29;;;;;;;13.27;10.35;;;13.50;99.90;;;;;;5018533;28;20072;-75
2022/08/09 05:13:55;;;;;;;13.25;10.20;;;13.60;99.90;;;;;;5035693;28;20123;-74
2022/08/09 05:16:21;;;;;;;13.25;10.13;;;13.60;99.90;;;;;;5037263;28;20029;-76
2022/08/09 05:18:47;;;;;;;14.85;10.88;;;13.60;99.90;;;;;;5019924;28;20488;-75
2022/08/09 05:21:13;;;;;;;13.65;9.95;;;13.70;99.90;;;;;;5018490;28;20045;-75
2022/08/09 05:23:39;;;;;;;13.98;10.55;;;13.70;99.90;;;;;;5036094;28;20049;-76
2022/08/09 05:26:05;;;;;;;14.27;10.70;;;13.70;99.90;;;;;;5019505;28;20051;-76
2022/08/09 05:28:31;;;;;;;13.18;9.60;;;13.80;99.90;;;;;;5019556;28;20492;-75
2022/08/09 05:30:56;;;;;;;12.10;9.15;;;13.90;99.90;;;;;;5018325;28;20056;-76
2022/08/09 05:33:22;;;;;;;11.02;9.32;;;14.00;99.90;;;;;;5003234;28;20036;-75
2022/08/09 05:35:48;;;;;;;14.52;11.32;;;14.10;99.90;;;;;;5000816;28;20092;-75
2022/08/09 05:38:14;;;;;;;14.82;10.43;;;14.50;99.90;;;;;;4997665;28;20059;-75
2022/08/09 05:40:40;;;;;;;14.88;10.32;;;14.90;99.90;;;;;;4993749;28;20041;-76
2022/08/09 05:43:06;;;;;;;11.80;9.45;;;15.70;99.90;;;;;;5011598;28;20060;-75
2022/08/09 05:45:32;;;;;;;13.27;8.32;;;16.10;99.90;;;;;;5016912;28;20033;-75
2022/08/09 05:47:58;;;;;;;9.85;7.30;;;16.60;99.90;;;;;;4996139;28;20033;-76
2022/08/09 05:50:27;;;;;;;10.23;7.20;;;17.60;99.90;;;;;;5016250;28;20041;-76
2022/08/09 05:52:53;;;;;;;10.48;7.28;;;18.20;99.90;;;;;;5012588;28;20123;-75
2022/08/09 05:55:19;;;;;;;10.95;6.43;;;18.20;99.90;;;;;;5014053;28;20112;-75
2022/08/09 05:57:45;;;;;;;8.82;6.45;;;18.50;99.90;;;;;;5031634;28;20090;-75
2022/08/09 06:00:14;;;;;;;7.22;5.10;;;19.10;99.90;;;;;;5017150;28;20559;-76
2022/08/09 06:02:40;;;;;;;8.48;5.15;;;19.90;99.90;;;;;;5032926;28;20128;-75
2022/08/09 06:05:07;;;;;;;8.38;5.50;;;20.90;99.90;;;;;;5000710;28;20171;-75
2022/08/09 06:07:34;;;;;;;8.60;5.85;;;21.20;99.90;;;;;;5031890;28;20128;-75
2022/08/09 06:10:00;;;;;;;8.00;5.60;;;21.10;99.90;;;;;;5026841;28;20480;-75
2022/08/09 06:12:26;;;;;;;10.43;6.28;;;20.50;99.90;;;;;;5014955;28;20052;-75
2022/08/09 06:14:52;;;;;;;8.30;5.43;;;21.10;99.90;;;;;;5000392;28;20049;-75
2022/08/09 06:17:18;;;;;;;8.20;5.32;;;21.00;99.90;;;;;;5032671;28;20037;-76
2022/08/09 06:19:44;;;;;;;7.95;5.40;;;21.30;99.90;;;;;;5030787;28;20045;-75
2022/08/09 06:22:10;;;;;;;7.30;4.68;;;21.10;99.90;;;;;;5016407;28;20396;-75
2022/08/09 06:24:35;;;;;;;7.32;4.30;;;21.30;99.90;;;;;;5032088;28;20056;-75
2022/08/09 06:27:01;;;;;;;6.68;4.20;;;22.60;99.90;;;;;;5032089;28;20041;-76
2022/08/09 06:29:27;;;;;;;7.78;4.78;;;23.10;99.90;;;;;;5015681;28;20043;-75
2022/08/09 06:31:53;;;;;;;6.20;4.15;;;23.30;99.90;;;;;;5032806;28;20079;-75
2022/08/09 06:34:19;;;;;;;6.78;3.90;;;23.70;99.90;;;;;;5017208;28;20499;-76
2022/08/09 06:36:45;;;;;;;8.07;4.72;;;24.10;99.80;;;;;;5030953;28;20037;-76
2022/08/09 06:39:11;;;;;;;7.35;4.45;;;23.90;97.20;;;;;;5013821;28;20034;-75
2022/08/09 06:41:37;;;;;;;6.32;3.97;;;24.30;98.30;;;;;;5015070;28;20112;-76
2022/08/09 06:44:03;;;;;;;6.68;4.00;;;24.60;96.90;;;;;;5027752;28;20040;-75
2022/08/09 06:46:29;;;;;;;7.40;3.88;;;25.20;97.00;;;;;;5027432;28;20037;-76
2022/08/09 06:48:55;;;;;;;7.35;4.32;;;25.30;94.80;;;;;;5013148;28;20048;-74
2022/08/09 06:51:20;;;;;;;6.97;3.70;;;26.00;92.80;;;;;;5013459;28;20175;-76
2022/08/09 06:53:46;;;;;;;6.55;3.78;;;25.80;93.60;;;;;;5014645;28;20029;-76
2022/08/09 06:56:12;;;;;;;7.75;4.72;;;25.70;92.50;;;;;;5014393;28;20041;-76
2022/08/09 06:58:38;;;;;;;7.53;3.53;;;25.20;91.40;;;;;;5026878;28;20040;-76
2022/08/09 07:01:05;;;;;;;7.97;3.70;;;24.40;93.20;;;;;;5014156;28;20041;-77
2022/08/09 07:03:33;;;;;;;6.57;2.67;;;24.80;94.50;;;;;;4995798;28;20056;-77
2022/08/09 07:06:01;;;;;;;5.43;2.88;;;24.70;94.40;;;;;;5027447;28;20456;-76
2022/08/09 07:08:28;;;;;;;6.40;3.20;;;24.90;93.40;;;;;;5014112;28;20045;-75
2022/08/09 07:10:54;;;;;;;7.07;2.85;;;25.60;92.50;;;;;;5028562;28;20045;-76
2022/08/09 07:13:19;;;;;;;7.47;2.95;;;25.80;91.10;;;;;;5014520;28;20047;-76
2022/08/09 07:15:45;;;;;;;6.22;2.78;;;26.00;91.20;;;;;;5015645;28;20079;-75
2022/08/09 07:18:11;;;;;;;6.85;3.00;;;25.80;90.70;;;;;;5030882;28;20067;-75
2022/08/09 07:20:37;;;;;;;6.72;2.70;;;25.80;90.60;;;;;;5031105;28;20033;-75
2022/08/09 07:23:03;;;;;;;6.32;2.80;;;25.40;90.00;;;;;;4999035;28;20090;-75
2022/08/09 07:25:29;;;;;;;7.50;2.97;;;24.90;90.70;;;;;;5012529;28;20090;-75
2022/08/09 07:27:54;;;;;;;7.57;3.17;;;24.80;91.10;;;;;;5013812;28;20054;-75
2022/08/09 07:30:20;;;;;;;7.63;2.50;;;24.10;91.40;;;;;;4995030;28;20037;-75
2022/08/09 07:32:46;;;;;;;8.05;2.00;;;23.40;93.50;;;;;;5014363;28;20115;-74
2022/08/09 07:35:12;;;;;;;5.20;1.90;;;23.60;94.80;;;;;;5013130;28;20036;-76
2022/08/09 07:37:39;;;;;;;6.47;2.17;;;24.00;94.70;;;;;;5024255;28;20114;-75
2022/08/09 07:40:06;;;;;;;6.80;2.05;;;24.00;93.70;;;;;;5028564;28;20036;-75
2022/08/09 07:42:31;;;;;;;9.80;2.10;;;23.60;93.70;;;;;;5028403;28;20408;-76
2022/08/09 07:44:57;;;;;;;5.40;1.67;;;23.70;93.30;;;;;;5013998;28;20037;-75
2022/08/09 07:47:23;;;;;;;4.43;1.50;;;23.20;93.70;;;;;;4997164;28;20033;-76
2022/08/09 07:49:49;;;;;;;6.07;2.00;;;23.50;95.40;;;;;;5012032;28;20123;-75
2022/08/09 07:52:14;;;;;;;5.78;2.10;;;23.70;94.40;;;;;;5009231;28;20098;-75
2022/08/09 07:54:40;;;;;;;7.07;2.17;;;23.60;93.90;;;;;;4997146;28;20044;-76
2022/08/09 07:57:06;;;;;;;6.63;2.90;;;23.60;94.10;;;;;;5026680;28;20033;-76
2022/08/09 07:59:32;;;;;;;6.80;2.50;;;23.00;94.70;;;;;;4991117;28;20049;-75
2022/08/09 08:01:58;;;;;;;6.43;2.40;;;23.40;95.60;;;;;;5011293;28;20128;-75
2022/08/09 08:04:24;;;;;;;8.30;2.30;;;23.90;95.20;;;;;;5009029;28;20087;-75
2022/08/09 08:06:49;;;;;;;6.80;2.08;;;24.30;92.60;;;;;;5031832;28;20496;-75
2022/08/09 08:09:16;;;;;;;5.35;1.85;;;24.10;93.70;;;;;;5015215;28;20041;-75
2022/08/09 08:11:42;;;;;;;5.93;1.90;;;24.10;93.10;;;;;;5031429;28;20510;-75
2022/08/09 08:14:08;;;;;;;7.43;1.92;;;23.60;92.80;;;;;;5032182;28;20423;-75
2022/08/09 08:16:34;;;;;;;5.47;1.77;;;23.20;93.80;;;;;;5031256;28;20037;-75
2022/08/09 08:19:00;;;;;;;4.65;1.50;;;23.00;94.00;;;;;;5015039;28;20045;-75
2022/08/09 08:21:26;;;;;;;4.97;1.48;;;22.60;95.10;;;;;;5014604;28;20084;-74
2022/08/09 08:23:52;;;;;;;3.85;1.45;;;23.00;95.10;;;;;;5014320;28;20065;-75
2022/08/09 08:26:18;;;;;;;4.78;1.33;;;23.00;94.20;;;;;;5020798;28;20041;-74
2022/08/09 08:28:43;;;;;;;4.88;1.50;;;23.30;93.40;;;;;;5023857;28;20040;-75
2022/08/09 08:31:09;;;;;;;5.15;1.60;;;23.50;93.60;;;;;;5023964;28;20494;-75
2022/08/09 08:33:35;;;;;;;6.20;1.45;;;23.50;92.60;;;;;;5008519;28;20112;-75
2022/08/09 08:36:01;;;;;;;4.70;1.40;;;23.50;93.30;;;;;;5012318;28;20044;-75
2022/08/09 08:38:28;;;;;;;5.03;1.50;;;23.50;93.20;;;;;;5015955;28;20041;-75
2022/08/09 08:40:55;;;;;;;4.30;1.50;;;23.80;92.30;;;;;;5030144;28;20571;-76
2022/08/09 08:43:22;;;;;;;4.80;1.63;;;23.90;92.30;;;;;;4989406;28;20057;-76
2022/08/09 08:45:56;;;;;;;4.18;1.40;;;23.80;92.90;;;;;;5015536;28;20048;-76
2022/08/09 08:48:23;;;;;;;4.53;1.83;;;23.60;93.00;;;;;;5026104;28;20495;-76
2022/08/09 08:50:49;;;;;;;3.42;1.40;;;23.80;93.00;;;;;;5026000;28;20041;-76
2022/08/09 08:53:15;;;;;;;3.38;1.30;;;23.80;92.80;;;;;;5025386;28;20049;-76
2022/08/09 08:55:42;;;;;;;2.63;1.15;;;23.70;92.50;;;;;;4986792;28;20490;-77
2022/08/09 08:58:09;;;;;;;5.32;1.58;;;23.60;92.70;;;;;;5034637;28;20040;-75
2022/08/09 09:00:35;;;;;;;4.90;1.40;;;23.60;92.40;;;;;;5039637;28;20055;-76
2022/08/09 09:03:03;;;;;;;4.75;1.52;;;23.40;92.60;;;;;;5041881;28;20488;-76
2022/08/09 09:05:30;;;;;;;4.72;1.40;;;23.70;92.00;;;;;;5040568;28;20094;-76
2022/08/09 09:07:57;;;;;;;3.88;1.30;;;23.70;91.90;;;;;;5040813;28;20076;-76
2022/08/09 09:10:26;;;;;;;2.25;0.95;;;23.80;91.60;;;;;;5039520;28;20097;-77
2022/08/09 09:12:53;;;;;;;3.28;1.10;;;23.90;91.00;;;;;;5024880;28;20064;-75
2022/08/09 09:15:19;;;;;;;2.88;1.10;;;24.20;90.40;;;;;;5037012;28;20053;-75
2022/08/09 09:17:45;;;;;;;3.35;1.30;;;24.20;90.40;;;;;;5018898;28;20037;-75
2022/08/09 09:20:12;;;;;;;3.88;1.20;;;24.20;90.20;;;;;;5036458;28;20048;-75
2022/08/09 09:22:55;;;;;;;4.82;1.30;;;24.30;90.40;;;;;;5003761;28;20052;-75
2022/08/09 09:25:40;;;;;;;3.05;1.10;;;23.70;90.70;;;;;;5035115;28;20056;-75
2022/08/09 09:28:07;;;;;;;3.60;1.30;;;24.20;91.70;;;;;;5036048;28;20044;-75
2022/08/09 09:30:34;;;;;;;4.13;1.48;;;24.40;90.40;;;;;;5026145;28;20047;-76
2022/08/09 09:33:09;;;;;;;3.83;1.30;;;24.30;90.00;;;;;;5028021;28;20056;-76
2022/08/09 09:35:51;;;;;;;4.28;1.13;;;24.60;90.00;;;;;;5014264;28;20040;-75
2022/08/09 09:38:21;;;;;;;4.95;1.20;;;24.50;88.90;;;;;;5032359;28;20044;-75
2022/08/09 09:40:46;;;;;;;5.50;1.13;;;24.60;86.00;;;;;;5010918;28;20033;-75
2022/08/09 09:43:19;;;;;;;3.65;1.30;;;24.70;86.10;;;;;;5015851;28;20048;-75
2022/08/09 09:45:47;;;;;;;4.55;1.30;;;24.40;85.80;;;;;;4994246;28;20033;-75
2022/08/09 09:48:14;;;;;;;3.45;1.30;;;24.20;87.10;;;;;;5028864;28;20418;-75
2022/08/09 09:50:45;;;;;;;2.65;1.20;;;24.00;87.40;;;;;;5028474;28;20126;-75
2022/08/09 09:53:25;;;;;;;2.67;1.00;;;24.20;87.30;;;;;;5027448;28;20037;-75
2022/08/09 09:56:00;;;;;;;1.88;0.98;;;24.30;87.20;;;;;;5012542;28;20130;-75
2022/08/09 09:58:47;;;;;;;3.22;1.15;;;24.00;87.50;;;;;;5032467;28;20041;-75
2022/08/09 10:01:20;;;;;;;3.13;1.10;;;24.40;87.10;;;;;;5031980;28;20041;-76
2022/08/09 10:03:49;;;;;;;2.58;1.10;;;24.80;84.10;;;;;;5032213;28;20507;-76
2022/08/09 10:06:16;;;;;;;2.97;1.10;;;25.00;83.30;;;;;;5015887;28;20194;-76
2022/08/09 10:08:43;;;;;;;2.75;1.20;;;25.00;83.90;;;;;;5032686;28;20138;-76
2022/08/09 10:11:24;;;;;;;3.10;1.33;;;25.30;83.80;;;;;;5016861;28;20565;-76
2022/08/09 10:13:52;;;;;;;4.47;1.30;;;25.50;81.50;;;;;;5032008;28;20053;-76
2022/08/09 10:16:31;;;;;;;3.20;1.05;;;25.30;82.30;;;;;;5032044;28;20110;-75
2022/08/09 10:19:00;;;;;;;2.53;1.00;;;25.40;81.70;;;;;;5031599;28;20064;-75
2022/08/09 10:21:26;;;;;;;3.88;1.20;;;25.50;81.40;;;;;;5032720;28;20488;-75
2022/08/09 10:23:54;;;;;;;4.22;1.30;;;25.40;81.40;;;;;;5017196;28;20044;-76
2022/08/09 10:26:21;;;;;;;3.00;1.13;;;25.60;79.80;;;;;;5032374;28;20106;-76
2022/08/09 10:28:47;;;;;;;3.10;1.00;;;25.60;78.50;;;;;;5016352;28;20053;-76
2022/08/09 10:31:14;;;;;;;3.05;1.00;;;25.80;78.30;;;;;;4999868;28;20029;-76
2022/08/09 10:33:40;;;;;;;2.22;0.90;;;25.80;74.90;;;;;;5032311;28;20507;-76
2022/08/09 10:36:08;;;;;;;4.00;1.00;;;25.80;74.40;;;;;;5015441;28;20091;-76
2022/08/09 10:38:35;;;;;;;2.28;1.00;;;25.80;73.50;;;;;;5032003;28;20094;-75
2022/08/09 10:41:02;;;;;;;2.13;0.90;;;25.90;73.70;;;;;;5016086;28;20051;-76
2022/08/09 10:43:28;;;;;;;3.78;1.00;;;26.00;70.70;;;;;;5016511;28;20041;-76
2022/08/09 10:45:54;;;;;;;3.20;1.08;;;26.20;70.60;;;;;;5014172;28;20148;-75
2022/08/09 10:48:24;;;;;;;2.30;0.90;;;25.50;70.10;;;;;;5031528;28;20388;-76
2022/08/09 10:51:24;;;;;;;2.90;1.02;;;25.70;72.90;;;;;;5014970;28;20381;-76
2022/08/09 10:53:57;;;;;;;3.50;1.00;;;25.60;73.70;;;;;;5027562;28;20060;-75
2022/08/09 10:56:28;;;;;;;2.92;1.10;;;26.00;72.00;;;;;;5030110;28;20491;-75
2022/08/09 10:58:56;;;;;;;3.42;1.00;;;25.50;71.30;;;;;;5032497;28;20499;-75
2022/08/09 11:01:31;;;;;;;3.08;1.00;;;25.70;72.70;;;;;;5031186;28;20126;-76
2022/08/09 11:04:09;;;;;;;2.10;0.90;;;25.80;71.70;;;;;;5032039;28;20369;-76
2022/08/09 11:06:40;;;;;;;3.33;1.00;;;25.90;70.30;;;;;;5030493;28;20047;-76
2022/08/09 11:09:07;;;;;;;2.38;1.00;;;25.90;70.00;;;;;;5015591;28;20052;-76
2022/08/09 11:11:56;;;;;;;2.55;0.90;;;26.10;69.40;;;;;;5031411;28;20036;-76
2022/08/09 11:15:01;;;;;;;3.03;0.90;;;26.30;65.40;;;;;;5031877;28;20041;-76
2022/08/09 11:17:30;;;;;;;3.03;0.90;;;26.20;64.20;;;;;;4928185;28;20043;-76
2022/08/09 11:20:07;;;;;;;2.00;0.90;;;25.90;64.00;;;;;;5001394;28;20563;-76
2022/08/09 11:22:46;;;;;;;2.35;1.05;;;26.10;65.00;;;;;;5015180;28;20560;-75
2022/08/09 11:25:26;;;;;;;2.75;1.05;;;26.20;64.10;;;;;;5030540;28;20099;-76
2022/08/09 11:27:56;;;;;;;2.17;0.90;;;26.40;65.60;;;;;;5015480;28;21371;-76
2022/08/09 11:30:22;;;;;;;2.55;0.90;;;26.50;64.30;;;;;;5013257;28;20041;-76
2022/08/09 11:32:51;;;;;;;2.70;0.98;;;26.40;63.10;;;;;;5028276;28;20033;-76
2022/08/09 11:35:22;;;;;;;2.28;0.90;;;26.50;62.80;;;;;;5026741;28;20102;-76
2022/08/09 11:37:52;;;;;;;3.08;1.00;;;26.40;63.50;;;;;;5026236;28;20125;-76
2022/08/09 11:40:28;;;;;;;3.00;1.05;;;26.40;64.30;;;;;;5026483;28;20048;-76
2022/08/09 11:42:56;;;;;;;2.78;1.00;;;26.50;61.60;;;;;;5013130;28;20032;-76
2022/08/09 11:45:42;;;;;;;2.95;0.90;;;26.50;62.90;;;;;;5027850;28;20041;-76
2022/08/09 11:48:11;;;;;;;2.40;0.95;;;26.60;60.60;;;;;;5027754;28;20041;-76
2022/08/09 11:51:03;;;;;;;2.80;1.00;;;26.30;61.10;;;;;;5029531;28;20033;-76
2022/08/09 11:53:32;;;;;;;2.65;0.90;;;26.30;58.90;;;;;;5027276;28;20491;-76
2022/08/09 11:56:00;;;;;;;2.33;0.95;;;26.10;61.20;;;;;;5026484;28;20094;-76
2022/08/09 11:58:29;;;;;;;3.00;0.90;;;26.20;62.30;;;;;;5028439;28;20120;-76
2022/08/09 12:01:00;;;;;;;2.30;1.00;;;26.30;61.30;;;;;;5013367;28;20041;-75
2022/08/09 12:03:27;;;;;;;2.83;1.10;;;26.20;61.10;;;;;;5027218;28;20040;-75
2022/08/09 12:05:58;;;;;;;3.38;1.10;;;26.30;62.10;;;;;;5030133;28;20055;-76
2022/08/09 12:08:25;;;;;;;;;;;26.40;62.20;;;;;;5029396;28;20048;-76
2022/08/09 12:10:57;;;;;;;2.72;1.10;;;26.50;60.30;;;;;;5012542;28;20371;-76
2022/08/09 12:13:46;;;;;;;2.95;1.02;;;26.50;59.90;;;;;;5025731;28;20786;-76
2022/08/09 12:16:24;;;;;;;2.50;0.90;;;26.40;60.60;;;;;;5012221;28;20041;-76
2022/08/09 12:18:51;;;;;;;3.38;1.00;;;26.50;59.20;;;;;;5024103;28;20045;-75
2022/08/09 12:21:35;;;;;;;2.97;0.90;;;26.40;60.00;;;;;;5012959;28;20056;-75
2022/08/09 12:24:03;;;;;;;3.13;1.08;;;26.30;59.80;;;;;;5031245;28;20044;-76
2022/08/09 12:26:42;;;;;;;4.13;1.00;;;26.50;57.80;;;;;;5011818;28;20138;-75
2022/08/09 12:29:13;;;;;;;3.00;0.90;;;26.40;58.40;;;;;;5014062;28;20060;-75
2022/08/09 12:31:39;;;;;;;2.72;1.00;;;26.40;57.80;;;;;;5029433;28;20037;-75
2022/08/09 12:34:04;;;;;;;2.63;1.00;;;26.40;58.00;;;;;;5029514;28;20452;-75
2022/08/09 12:36:31;;;;;;;4.30;1.20;;;26.60;57.90;;;;;;4964448;28;20049;-76
2022/08/09 12:38:58;;;;;;;3.63;1.05;;;26.50;57.50;;;;;;5012126;28;20041;-76
2022/08/09 12:41:29;;;;;;;2.30;0.95;;;26.60;58.00;;;;;;5014470;28;20047;-75
2022/08/09 12:43:56;;;;;;;2.40;0.80;;;26.60;58.40;;;;;;5030585;28;20051;-76
2022/08/09 12:46:24;;;;;;;4.90;0.90;;;26.50;57.00;;;;;;5014071;28;20041;-76
2022/08/09 12:48:51;;;;;;;2.95;0.90;;;26.70;55.70;;;;;;5030255;28;20056;-75
2022/08/09 12:51:19;;;;;;;3.10;1.10;;;26.70;55.50;;;;;;5029929;28;20508;-75